sensor_id;sensor_type;location;lat;lon;timestamp;P1;durP1;ratioP1;P2;durP2;ratioP2
3341;SDS011;1684;50.748;6.154;2024-03-29T00:01:19;4.53;;;0.97;;
3341;SDS011;1684;50.748;6.154;2024-03-29T00:03:46;2.83;;;1.23;;
3341;SDS011;1684;50.748;6.154;2024-03-29T00:06:12;2.57;;;0.90;;
3341;SDS011;1684;50.748;6.154;2024-03-29T00:08:39;5.70;;;0.80;;
3341;SDS011;1684;50.748;6.154;2024-03-29T00:11:05;3.10;;;1.20;;
3341;SDS011;1684;50.748;6.154;2024-03-29T00:13:32;3.10;;;0.90;;
3341;SDS011;1684;50.748;6.154;2024-03-29T00:15:58;3.63;;;1.10;;
3341;SDS011;1684;50.748;6.154;2024-03-29T00:18:26;4.20;;;0.87;;
3341;SDS011;1684;50.748;6.154;2024-03-29T00:20:52;4.37;;;1.40;;
3341;SDS011;1684;50.748;6.154;2024-03-29T00:23:19;8.27;;;1.20;;
3341;SDS011;1684;50.748;6.154;2024-03-29T00:25:45;6.00;;;0.97;;
3341;SDS011;1684;50.748;6.154;2024-03-29T00:28:12;5.23;;;1.33;;
3341;SDS011;1684;50.748;6.154;2024-03-29T00:30:38;7.27;;;1.90;;
3341;SDS011;1684;50.748;6.154;2024-03-29T00:33:04;2.83;;;0.80;;
3341;SDS011;1684;50.748;6.154;2024-03-29T00:35:32;5.73;;;1.13;;
3341;SDS011;1684;50.748;6.154;2024-03-29T00:37:59;4.40;;;1.57;;
3341;SDS011;1684;50.748;6.154;2024-03-29T00:40:25;2.83;;;1.10;;
3341;SDS011;1684;50.748;6.154;2024-03-29T00:42:52;3.80;;;2.40;;
3341;SDS011;1684;50.748;6.154;2024-03-29T00:45:18;4.33;;;1.50;;
3341;SDS011;1684;50.748;6.154;2024-03-29T00:47:45;4.03;;;1.20;;
3341;SDS011;1684;50.748;6.154;2024-03-29T00:50:11;4.93;;;1.17;;
3341;SDS011;1684;50.748;6.154;2024-03-29T00:52:39;4.30;;;0.87;;
3341;SDS011;1684;50.748;6.154;2024-03-29T00:55:06;5.80;;;1.40;;
3341;SDS011;1684;50.748;6.154;2024-03-29T00:57:32;2.83;;;1.10;;
3341;SDS011;1684;50.748;6.154;2024-03-29T00:59:58;10.50;;;1.17;;
3341;SDS011;1684;50.748;6.154;2024-03-29T01:02:25;4.50;;;1.37;;
3341;SDS011;1684;50.748;6.154;2024-03-29T01:04:51;5.23;;;1.40;;
3341;SDS011;1684;50.748;6.154;2024-03-29T01:07:18;3.53;;;1.07;;
3341;SDS011;1684;50.748;6.154;2024-03-29T01:09:46;4.53;;;1.10;;
3341;SDS011;1684;50.748;6.154;2024-03-29T01:12:12;3.60;;;1.17;;
3341;SDS011;1684;50.748;6.154;2024-03-29T01:14:38;2.90;;;0.83;;
3341;SDS011;1684;50.748;6.154;2024-03-29T01:17:05;5.10;;;1.03;;
3341;SDS011;1684;50.748;6.154;2024-03-29T01:19:31;4.73;;;0.93;;
3341;SDS011;1684;50.748;6.154;2024-03-29T01:21:58;3.83;;;1.57;;
3341;SDS011;1684;50.748;6.154;2024-03-29T01:24:24;2.40;;;0.90;;
3341;SDS011;1684;50.748;6.154;2024-03-29T01:26:52;2.53;;;0.70;;
3341;SDS011;1684;50.748;6.154;2024-03-29T01:29:20;4.27;;;1.00;;
3341;SDS011;1684;50.748;6.154;2024-03-29T01:31:46;2.90;;;0.70;;
3341;SDS011;1684;50.748;6.154;2024-03-29T01:34:13;2.50;;;0.90;;
3341;SDS011;1684;50.748;6.154;2024-03-29T01:36:39;5.43;;;1.00;;
3341;SDS011;1684;50.748;6.154;2024-03-29T01:39:06;3.33;;;0.90;;
3341;SDS011;1684;50.748;6.154;2024-03-29T01:41:32;5.17;;;1.30;;
3341;SDS011;1684;50.748;6.154;2024-03-29T01:44:00;4.20;;;1.23;;
3341;SDS011;1684;50.748;6.154;2024-03-29T01:46:28;2.70;;;0.87;;
3341;SDS011;1684;50.748;6.154;2024-03-29T01:48:55;4.20;;;1.60;;
3341;SDS011;1684;50.748;6.154;2024-03-29T01:51:23;2.80;;;1.30;;
3341;SDS011;1684;50.748;6.154;2024-03-29T01:53:50;2.63;;;1.10;;
3341;SDS011;1684;50.748;6.154;2024-03-29T01:56:20;4.73;;;1.00;;
3341;SDS011;1684;50.748;6.154;2024-03-29T01:58:48;3.60;;;1.03;;
3341;SDS011;1684;50.748;6.154;2024-03-29T02:01:18;4.20;;;1.10;;
3341;SDS011;1684;50.748;6.154;2024-03-29T02:03:46;2.80;;;1.20;;
3341;SDS011;1684;50.748;6.154;2024-03-29T02:06:14;3.60;;;0.90;;
3341;SDS011;1684;50.748;6.154;2024-03-29T02:08:41;4.60;;;1.30;;
3341;SDS011;1684;50.748;6.154;2024-03-29T02:11:08;7.20;;;1.17;;
3341;SDS011;1684;50.748;6.154;2024-03-29T02:13:36;2.70;;;1.00;;
3341;SDS011;1684;50.748;6.154;2024-03-29T02:16:05;3.70;;;0.70;;
3341;SDS011;1684;50.748;6.154;2024-03-29T02:18:34;2.70;;;0.70;;
3341;SDS011;1684;50.748;6.154;2024-03-29T02:21:01;4.03;;;1.13;;
3341;SDS011;1684;50.748;6.154;2024-03-29T02:23:30;3.10;;;0.83;;
3341;SDS011;1684;50.748;6.154;2024-03-29T02:26:00;3.97;;;1.27;;
3341;SDS011;1684;50.748;6.154;2024-03-29T02:28:29;3.97;;;1.13;;
3341;SDS011;1684;50.748;6.154;2024-03-29T02:30:57;4.50;;;1.23;;
3341;SDS011;1684;50.748;6.154;2024-03-29T02:33:24;5.00;;;0.90;;
3341;SDS011;1684;50.748;6.154;2024-03-29T02:35:52;3.83;;;0.80;;
3341;SDS011;1684;50.748;6.154;2024-03-29T02:38:19;3.23;;;0.70;;
3341;SDS011;1684;50.748;6.154;2024-03-29T02:40:47;3.70;;;1.00;;
3341;SDS011;1684;50.748;6.154;2024-03-29T02:43:16;9.00;;;1.67;;
3341;SDS011;1684;50.748;6.154;2024-03-29T02:45:43;3.10;;;1.10;;
3341;SDS011;1684;50.748;6.154;2024-03-29T02:48:11;4.53;;;1.00;;
3341;SDS011;1684;50.748;6.154;2024-03-29T02:50:37;4.90;;;0.90;;
3341;SDS011;1684;50.748;6.154;2024-03-29T02:53:04;4.40;;;1.20;;
3341;SDS011;1684;50.748;6.154;2024-03-29T02:55:32;4.67;;;1.10;;
3341;SDS011;1684;50.748;6.154;2024-03-29T02:57:58;3.27;;;1.23;;
3341;SDS011;1684;50.748;6.154;2024-03-29T03:00:27;3.07;;;0.83;;
3341;SDS011;1684;50.748;6.154;2024-03-29T03:02:53;6.10;;;1.40;;
3341;SDS011;1684;50.748;6.154;2024-03-29T03:05:21;3.13;;;0.90;;
3341;SDS011;1684;50.748;6.154;2024-03-29T03:07:47;2.93;;;1.10;;
3341;SDS011;1684;50.748;6.154;2024-03-29T03:10:32;3.60;;;1.13;;
3341;SDS011;1684;50.748;6.154;2024-03-29T03:13:17;3.80;;;1.30;;
3341;SDS011;1684;50.748;6.154;2024-03-29T03:15:45;4.23;;;1.00;;
3341;SDS011;1684;50.748;6.154;2024-03-29T03:18:13;2.57;;;0.80;;
3341;SDS011;1684;50.748;6.154;2024-03-29T03:20:40;4.77;;;1.53;;
3341;SDS011;1684;50.748;6.154;2024-03-29T03:23:07;3.40;;;1.07;;
3341;SDS011;1684;50.748;6.154;2024-03-29T03:25:34;5.00;;;1.37;;
3341;SDS011;1684;50.748;6.154;2024-03-29T03:28:00;4.77;;;1.20;;
3341;SDS011;1684;50.748;6.154;2024-03-29T03:30:28;2.27;;;0.60;;
3341;SDS011;1684;50.748;6.154;2024-03-29T03:32:55;2.57;;;0.80;;
3341;SDS011;1684;50.748;6.154;2024-03-29T03:35:23;2.93;;;1.10;;
3341;SDS011;1684;50.748;6.154;2024-03-29T03:37:49;2.80;;;1.07;;
3341;SDS011;1684;50.748;6.154;2024-03-29T03:40:17;5.03;;;1.10;;
3341;SDS011;1684;50.748;6.154;2024-03-29T03:42:43;6.40;;;1.17;;
3341;SDS011;1684;50.748;6.154;2024-03-29T03:45:10;3.70;;;1.20;;
3341;SDS011;1684;50.748;6.154;2024-03-29T03:47:37;4.53;;;1.13;;
3341;SDS011;1684;50.748;6.154;2024-03-29T03:50:06;7.83;;;1.40;;
3341;SDS011;1684;50.748;6.154;2024-03-29T03:52:32;4.27;;;1.20;;
3341;SDS011;1684;50.748;6.154;2024-03-29T03:55:00;5.93;;;1.40;;
3341;SDS011;1684;50.748;6.154;2024-03-29T03:57:26;2.70;;;1.10;;
3341;SDS011;1684;50.748;6.154;2024-03-29T03:59:53;2.90;;;1.00;;
3341;SDS011;1684;50.748;6.154;2024-03-29T04:02:20;3.33;;;1.13;;
3341;SDS011;1684;50.748;6.154;2024-03-29T04:04:47;3.07;;;1.30;;
3341;SDS011;1684;50.748;6.154;2024-03-29T04:07:16;3.63;;;1.63;;
3341;SDS011;1684;50.748;6.154;2024-03-29T04:09:43;4.77;;;1.20;;
3341;SDS011;1684;50.748;6.154;2024-03-29T04:12:10;3.60;;;1.23;;
3341;SDS011;1684;50.748;6.154;2024-03-29T04:14:36;3.77;;;1.00;;
3341;SDS011;1684;50.748;6.154;2024-03-29T04:17:04;10.50;;;3.27;;
3341;SDS011;1684;50.748;6.154;2024-03-29T04:19:31;7.27;;;2.30;;
3341;SDS011;1684;50.748;6.154;2024-03-29T04:21:58;4.33;;;1.50;;
3341;SDS011;1684;50.748;6.154;2024-03-29T04:24:26;4.40;;;1.40;;
3341;SDS011;1684;50.748;6.154;2024-03-29T04:26:54;3.97;;;1.00;;
3341;SDS011;1684;50.748;6.154;2024-03-29T04:29:21;2.97;;;1.07;;
3341;SDS011;1684;50.748;6.154;2024-03-29T04:31:49;5.03;;;1.30;;
3341;SDS011;1684;50.748;6.154;2024-03-29T04:34:16;5.83;;;1.63;;
3341;SDS011;1684;50.748;6.154;2024-03-29T04:36:44;5.80;;;1.60;;
3341;SDS011;1684;50.748;6.154;2024-03-29T04:39:13;5.47;;;1.10;;
3341;SDS011;1684;50.748;6.154;2024-03-29T04:41:42;4.60;;;1.63;;
3341;SDS011;1684;50.748;6.154;2024-03-29T04:44:11;4.90;;;1.60;;
3341;SDS011;1684;50.748;6.154;2024-03-29T04:46:39;5.90;;;1.63;;
3341;SDS011;1684;50.748;6.154;2024-03-29T04:49:06;3.07;;;0.90;;
3341;SDS011;1684;50.748;6.154;2024-03-29T04:51:34;4.00;;;1.37;;
3341;SDS011;1684;50.748;6.154;2024-03-29T04:54:01;5.63;;;1.77;;
3341;SDS011;1684;50.748;6.154;2024-03-29T04:56:28;4.70;;;1.30;;
3341;SDS011;1684;50.748;6.154;2024-03-29T04:58:58;3.67;;;1.27;;
3341;SDS011;1684;50.748;6.154;2024-03-29T05:01:26;4.07;;;1.23;;
3341;SDS011;1684;50.748;6.154;2024-03-29T05:03:53;6.20;;;1.60;;
3341;SDS011;1684;50.748;6.154;2024-03-29T05:06:21;4.47;;;1.20;;
3341;SDS011;1684;50.748;6.154;2024-03-29T05:08:48;2.67;;;1.20;;
3341;SDS011;1684;50.748;6.154;2024-03-29T05:11:16;3.63;;;1.40;;
3341;SDS011;1684;50.748;6.154;2024-03-29T05:13:43;5.30;;;1.30;;
3341;SDS011;1684;50.748;6.154;2024-03-29T05:16:12;4.70;;;1.40;;
3341;SDS011;1684;50.748;6.154;2024-03-29T05:18:40;4.03;;;1.60;;
3341;SDS011;1684;50.748;6.154;2024-03-29T05:21:08;2.20;;;0.40;;
3341;SDS011;1684;50.748;6.154;2024-03-29T05:23:36;2.10;;;0.40;;
3341;SDS011;1684;50.748;6.154;2024-03-29T05:26:03;2.10;;;0.40;;
3341;SDS011;1684;50.748;6.154;2024-03-29T05:28:31;2.00;;;0.40;;
3341;SDS011;1684;50.748;6.154;2024-03-29T05:31:08;2.00;;;0.40;;
3341;SDS011;1684;50.748;6.154;2024-03-29T05:33:40;2.07;;;0.40;;
3341;SDS011;1684;50.748;6.154;2024-03-29T05:36:07;2.10;;;0.40;;
3341;SDS011;1684;50.748;6.154;2024-03-29T05:38:37;2.00;;;0.40;;
3341;SDS011;1684;50.748;6.154;2024-03-29T05:41:05;2.00;;;0.40;;
3341;SDS011;1684;50.748;6.154;2024-03-29T05:43:32;2.00;;;0.40;;
3341;SDS011;1684;50.748;6.154;2024-03-29T05:45:59;2.00;;;0.40;;
3341;SDS011;1684;50.748;6.154;2024-03-29T05:48:28;2.00;;;0.40;;
3341;SDS011;1684;50.748;6.154;2024-03-29T05:50:57;2.07;;;0.40;;
3341;SDS011;1684;50.748;6.154;2024-03-29T05:53:25;2.00;;;0.40;;
3341;SDS011;1684;50.748;6.154;2024-03-29T05:55:52;2.00;;;0.40;;
3341;SDS011;1684;50.748;6.154;2024-03-29T05:58:20;2.00;;;0.40;;
3341;SDS011;1684;50.748;6.154;2024-03-29T06:00:48;2.07;;;0.40;;
3341;SDS011;1684;50.748;6.154;2024-03-29T06:03:15;2.00;;;0.37;;
3341;SDS011;1684;50.748;6.154;2024-03-29T06:05:43;2.10;;;0.40;;
3341;SDS011;1684;50.748;6.154;2024-03-29T06:08:12;2.03;;;0.40;;
3341;SDS011;1684;50.748;6.154;2024-03-29T06:10:39;2.00;;;0.40;;
3341;SDS011;1684;50.748;6.154;2024-03-29T06:13:06;2.00;;;0.40;;
3341;SDS011;1684;50.748;6.154;2024-03-29T06:15:43;2.03;;;0.40;;
3341;SDS011;1684;50.748;6.154;2024-03-29T06:18:28;2.00;;;0.37;;
3341;SDS011;1684;50.748;6.154;2024-03-29T06:20:56;2.10;;;0.40;;
3341;SDS011;1684;50.748;6.154;2024-03-29T06:23:25;2.03;;;0.40;;
3341;SDS011;1684;50.748;6.154;2024-03-29T06:25:53;2.00;;;0.40;;
3341;SDS011;1684;50.748;6.154;2024-03-29T06:28:21;2.00;;;0.40;;
3341;SDS011;1684;50.748;6.154;2024-03-29T06:30:48;2.00;;;0.40;;
3341;SDS011;1684;50.748;6.154;2024-03-29T06:33:16;2.03;;;0.40;;
3341;SDS011;1684;50.748;6.154;2024-03-29T06:35:43;2.00;;;0.40;;
3341;SDS011;1684;50.748;6.154;2024-03-29T06:38:19;2.00;;;0.33;;
3341;SDS011;1684;50.748;6.154;2024-03-29T06:40:48;2.03;;;0.40;;
3341;SDS011;1684;50.748;6.154;2024-03-29T06:43:15;2.00;;;0.40;;
3341;SDS011;1684;50.748;6.154;2024-03-29T06:45:43;2.00;;;0.40;;
3341;SDS011;1684;50.748;6.154;2024-03-29T06:48:10;2.00;;;0.40;;
3341;SDS011;1684;50.748;6.154;2024-03-29T06:50:38;2.10;;;0.40;;
3341;SDS011;1684;50.748;6.154;2024-03-29T06:53:05;2.80;;;0.90;;
3341;SDS011;1684;50.748;6.154;2024-03-29T06:55:34;3.33;;;1.27;;
3341;SDS011;1684;50.748;6.154;2024-03-29T06:58:03;2.73;;;1.10;;
3341;SDS011;1684;50.748;6.154;2024-03-29T07:00:32;3.10;;;1.30;;
3341;SDS011;1684;50.748;6.154;2024-03-29T07:02:59;3.53;;;1.00;;
3341;SDS011;1684;50.748;6.154;2024-03-29T07:05:28;11.63;;;2.33;;
3341;SDS011;1684;50.748;6.154;2024-03-29T07:07:55;4.17;;;1.40;;
3341;SDS011;1684;50.748;6.154;2024-03-29T07:10:26;4.37;;;1.40;;
3341;SDS011;1684;50.748;6.154;2024-03-29T07:12:53;3.20;;;1.43;;
3341;SDS011;1684;50.748;6.154;2024-03-29T07:15:22;3.90;;;1.43;;
3341;SDS011;1684;50.748;6.154;2024-03-29T07:17:49;3.03;;;1.07;;
3341;SDS011;1684;50.748;6.154;2024-03-29T07:20:17;4.67;;;1.30;;
3341;SDS011;1684;50.748;6.154;2024-03-29T07:22:45;3.37;;;1.53;;
3341;SDS011;1684;50.748;6.154;2024-03-29T07:25:12;4.27;;;1.30;;
3341;SDS011;1684;50.748;6.154;2024-03-29T07:27:39;4.03;;;1.03;;
3341;SDS011;1684;50.748;6.154;2024-03-29T07:30:07;3.40;;;1.23;;
3341;SDS011;1684;50.748;6.154;2024-03-29T07:32:37;3.60;;;1.30;;
3341;SDS011;1684;50.748;6.154;2024-03-29T07:35:05;3.13;;;1.20;;
3341;SDS011;1684;50.748;6.154;2024-03-29T07:37:32;3.03;;;1.17;;
3341;SDS011;1684;50.748;6.154;2024-03-29T07:39:59;4.13;;;1.50;;
3341;SDS011;1684;50.748;6.154;2024-03-29T07:42:27;4.80;;;1.60;;
3341;SDS011;1684;50.748;6.154;2024-03-29T07:44:55;3.90;;;1.60;;
3341;SDS011;1684;50.748;6.154;2024-03-29T07:47:22;4.53;;;1.53;;
3341;SDS011;1684;50.748;6.154;2024-03-29T07:49:52;3.70;;;1.33;;
3341;SDS011;1684;50.748;6.154;2024-03-29T07:52:19;6.13;;;1.70;;
3341;SDS011;1684;50.748;6.154;2024-03-29T07:54:47;5.90;;;2.07;;
3341;SDS011;1684;50.748;6.154;2024-03-29T07:57:14;6.40;;;1.20;;
3341;SDS011;1684;50.748;6.154;2024-03-29T07:59:42;5.50;;;1.80;;
3341;SDS011;1684;50.748;6.154;2024-03-29T08:02:10;3.37;;;1.40;;
3341;SDS011;1684;50.748;6.154;2024-03-29T08:04:37;6.73;;;1.70;;
3341;SDS011;1684;50.748;6.154;2024-03-29T08:07:09;3.17;;;1.20;;
3341;SDS011;1684;50.748;6.154;2024-03-29T08:09:38;3.00;;;1.00;;
3341;SDS011;1684;50.748;6.154;2024-03-29T08:12:05;4.40;;;1.57;;
3341;SDS011;1684;50.748;6.154;2024-03-29T08:14:33;4.50;;;1.53;;
3341;SDS011;1684;50.748;6.154;2024-03-29T08:17:00;10.40;;;1.90;;
3341;SDS011;1684;50.748;6.154;2024-03-29T08:19:30;4.57;;;1.63;;
3341;SDS011;1684;50.748;6.154;2024-03-29T08:21:57;3.17;;;1.43;;
3341;SDS011;1684;50.748;6.154;2024-03-29T08:24:27;4.80;;;1.80;;
3341;SDS011;1684;50.748;6.154;2024-03-29T08:26:55;3.80;;;1.50;;
3341;SDS011;1684;50.748;6.154;2024-03-29T08:29:24;4.13;;;1.63;;
3341;SDS011;1684;50.748;6.154;2024-03-29T08:31:52;4.63;;;1.70;;
3341;SDS011;1684;50.748;6.154;2024-03-29T08:34:19;5.77;;;1.70;;
3341;SDS011;1684;50.748;6.154;2024-03-29T08:36:47;9.27;;;1.40;;
3341;SDS011;1684;50.748;6.154;2024-03-29T08:39:14;3.80;;;1.50;;
3341;SDS011;1684;50.748;6.154;2024-03-29T08:41:43;4.40;;;1.10;;
3341;SDS011;1684;50.748;6.154;2024-03-29T08:44:11;4.03;;;1.27;;
3341;SDS011;1684;50.748;6.154;2024-03-29T08:46:38;3.43;;;1.20;;
3341;SDS011;1684;50.748;6.154;2024-03-29T08:49:06;7.17;;;1.43;;
3341;SDS011;1684;50.748;6.154;2024-03-29T08:51:33;2.93;;;1.20;;
3341;SDS011;1684;50.748;6.154;2024-03-29T08:54:00;6.07;;;1.53;;
3341;SDS011;1684;50.748;6.154;2024-03-29T08:56:30;3.83;;;1.00;;
3341;SDS011;1684;50.748;6.154;2024-03-29T08:58:59;4.40;;;1.27;;
3341;SDS011;1684;50.748;6.154;2024-03-29T09:01:32;4.67;;;1.30;;
3341;SDS011;1684;50.748;6.154;2024-03-29T09:04:00;4.90;;;1.40;;
3341;SDS011;1684;50.748;6.154;2024-03-29T09:06:29;3.37;;;1.03;;
3341;SDS011;1684;50.748;6.154;2024-03-29T09:08:57;4.57;;;1.30;;
3341;SDS011;1684;50.748;6.154;2024-03-29T09:11:24;3.40;;;1.23;;
3341;SDS011;1684;50.748;6.154;2024-03-29T09:13:52;3.50;;;1.20;;
3341;SDS011;1684;50.748;6.154;2024-03-29T09:16:23;4.07;;;1.57;;
3341;SDS011;1684;50.748;6.154;2024-03-29T09:18:50;3.73;;;1.20;;
3341;SDS011;1684;50.748;6.154;2024-03-29T09:21:19;2.80;;;0.83;;
3341;SDS011;1684;50.748;6.154;2024-03-29T09:23:46;4.97;;;1.10;;
3341;SDS011;1684;50.748;6.154;2024-03-29T09:26:16;3.03;;;1.10;;
3341;SDS011;1684;50.748;6.154;2024-03-29T09:28:43;5.10;;;1.27;;
3341;SDS011;1684;50.748;6.154;2024-03-29T09:31:11;4.47;;;1.00;;
3341;SDS011;1684;50.748;6.154;2024-03-29T09:33:39;3.77;;;1.00;;
3341;SDS011;1684;50.748;6.154;2024-03-29T09:36:07;3.60;;;0.93;;
3341;SDS011;1684;50.748;6.154;2024-03-29T09:38:36;3.13;;;1.07;;
3341;SDS011;1684;50.748;6.154;2024-03-29T09:41:06;3.10;;;1.07;;
3341;SDS011;1684;50.748;6.154;2024-03-29T09:43:37;4.07;;;0.90;;
3341;SDS011;1684;50.748;6.154;2024-03-29T09:46:07;3.50;;;1.07;;
3341;SDS011;1684;50.748;6.154;2024-03-29T09:48:35;3.90;;;1.07;;
3341;SDS011;1684;50.748;6.154;2024-03-29T09:51:05;3.20;;;0.90;;
3341;SDS011;1684;50.748;6.154;2024-03-29T09:53:33;4.70;;;1.37;;
3341;SDS011;1684;50.748;6.154;2024-03-29T09:56:03;6.27;;;0.90;;
3341;SDS011;1684;50.748;6.154;2024-03-29T09:58:30;6.63;;;1.10;;
3341;SDS011;1684;50.748;6.154;2024-03-29T10:00:57;5.73;;;1.00;;
3341;SDS011;1684;50.748;6.154;2024-03-29T10:03:25;3.00;;;1.00;;
3341;SDS011;1684;50.748;6.154;2024-03-29T10:05:55;5.20;;;1.17;;
3341;SDS011;1684;50.748;6.154;2024-03-29T10:08:25;3.83;;;0.80;;
3341;SDS011;1684;50.748;6.154;2024-03-29T10:10:53;3.03;;;0.90;;
3341;SDS011;1684;50.748;6.154;2024-03-29T10:13:21;5.33;;;0.90;;
3341;SDS011;1684;50.748;6.154;2024-03-29T10:15:48;4.13;;;1.00;;
3341;SDS011;1684;50.748;6.154;2024-03-29T10:18:18;3.20;;;0.90;;
3341;SDS011;1684;50.748;6.154;2024-03-29T10:20:45;2.90;;;0.90;;
3341;SDS011;1684;50.748;6.154;2024-03-29T10:23:13;5.63;;;0.90;;
3341;SDS011;1684;50.748;6.154;2024-03-29T10:25:44;4.07;;;1.00;;
3341;SDS011;1684;50.748;6.154;2024-03-29T10:28:11;3.73;;;1.10;;
3341;SDS011;1684;50.748;6.154;2024-03-29T10:30:38;2.67;;;0.63;;
3341;SDS011;1684;50.748;6.154;2024-03-29T10:33:06;3.37;;;0.90;;
3341;SDS011;1684;50.748;6.154;2024-03-29T10:35:33;3.30;;;1.00;;
3341;SDS011;1684;50.748;6.154;2024-03-29T10:38:02;3.77;;;1.20;;
3341;SDS011;1684;50.748;6.154;2024-03-29T10:40:29;3.97;;;1.30;;
3341;SDS011;1684;50.748;6.154;2024-03-29T10:42:58;2.90;;;1.00;;
3341;SDS011;1684;50.748;6.154;2024-03-29T10:45:29;3.93;;;1.30;;
3341;SDS011;1684;50.748;6.154;2024-03-29T10:47:57;5.07;;;0.93;;
3341;SDS011;1684;50.748;6.154;2024-03-29T10:50:25;4.87;;;1.20;;
3341;SDS011;1684;50.748;6.154;2024-03-29T10:52:53;2.80;;;0.90;;
3341;SDS011;1684;50.748;6.154;2024-03-29T10:55:22;2.80;;;0.80;;
3341;SDS011;1684;50.748;6.154;2024-03-29T10:57:49;4.50;;;1.10;;
3341;SDS011;1684;50.748;6.154;2024-03-29T11:00:21;3.57;;;1.00;;
3341;SDS011;1684;50.748;6.154;2024-03-29T11:02:49;3.13;;;1.07;;
3341;SDS011;1684;50.748;6.154;2024-03-29T11:05:17;2.70;;;0.80;;
3341;SDS011;1684;50.748;6.154;2024-03-29T11:07:44;4.90;;;1.00;;
3341;SDS011;1684;50.748;6.154;2024-03-29T11:10:15;3.83;;;1.10;;
3341;SDS011;1684;50.748;6.154;2024-03-29T11:12:47;4.10;;;1.23;;
3341;SDS011;1684;50.748;6.154;2024-03-29T11:15:19;3.10;;;1.00;;
3341;SDS011;1684;50.748;6.154;2024-03-29T11:17:50;3.50;;;0.90;;
3341;SDS011;1684;50.748;6.154;2024-03-29T11:20:18;3.93;;;0.80;;
3341;SDS011;1684;50.748;6.154;2024-03-29T11:22:49;4.03;;;1.00;;
3341;SDS011;1684;50.748;6.154;2024-03-29T11:25:17;3.53;;;1.30;;
3341;SDS011;1684;50.748;6.154;2024-03-29T11:27:44;3.10;;;1.00;;
3341;SDS011;1684;50.748;6.154;2024-03-29T11:30:16;3.33;;;1.40;;
3341;SDS011;1684;50.748;6.154;2024-03-29T11:32:43;3.00;;;0.90;;
3341;SDS011;1684;50.748;6.154;2024-03-29T11:35:15;2.93;;;0.80;;
3341;SDS011;1684;50.748;6.154;2024-03-29T11:37:45;3.03;;;0.73;;
3341;SDS011;1684;50.748;6.154;2024-03-29T11:40:14;3.53;;;0.80;;
3341;SDS011;1684;50.748;6.154;2024-03-29T11:42:46;4.93;;;0.93;;
3341;SDS011;1684;50.748;6.154;2024-03-29T11:45:14;3.70;;;1.23;;
3341;SDS011;1684;50.748;6.154;2024-03-29T11:47:41;3.20;;;1.07;;
3341;SDS011;1684;50.748;6.154;2024-03-29T11:50:09;4.30;;;1.10;;
3341;SDS011;1684;50.748;6.154;2024-03-29T11:52:39;2.80;;;0.80;;
3341;SDS011;1684;50.748;6.154;2024-03-29T11:55:07;3.30;;;0.90;;
3341;SDS011;1684;50.748;6.154;2024-03-29T11:57:34;3.93;;;0.70;;
3341;SDS011;1684;50.748;6.154;2024-03-29T12:00:05;2.67;;;0.70;;
3341;SDS011;1684;50.748;6.154;2024-03-29T12:02:34;4.60;;;0.80;;
3341;SDS011;1684;50.748;6.154;2024-03-29T12:05:05;2.87;;;0.77;;
3341;SDS011;1684;50.748;6.154;2024-03-29T12:07:33;2.90;;;0.80;;
3341;SDS011;1684;50.748;6.154;2024-03-29T12:10:02;3.30;;;1.10;;
3341;SDS011;1684;50.748;6.154;2024-03-29T12:12:30;3.33;;;0.83;;
3341;SDS011;1684;50.748;6.154;2024-03-29T12:15:02;3.53;;;1.20;;
3341;SDS011;1684;50.748;6.154;2024-03-29T12:17:30;2.70;;;0.73;;
3341;SDS011;1684;50.748;6.154;2024-03-29T12:19:58;2.67;;;0.70;;
3341;SDS011;1684;50.748;6.154;2024-03-29T12:22:30;2.80;;;0.70;;
3341;SDS011;1684;50.748;6.154;2024-03-29T12:24:57;2.53;;;0.60;;
3341;SDS011;1684;50.748;6.154;2024-03-29T12:27:26;2.60;;;0.60;;
3341;SDS011;1684;50.748;6.154;2024-03-29T12:29:54;3.13;;;0.83;;
3341;SDS011;1684;50.748;6.154;2024-03-29T12:32:22;3.87;;;0.60;;
3341;SDS011;1684;50.748;6.154;2024-03-29T12:34:51;3.30;;;0.80;;
3341;SDS011;1684;50.748;6.154;2024-03-29T12:37:20;2.60;;;0.50;;
3341;SDS011;1684;50.748;6.154;2024-03-29T12:39:51;2.80;;;0.70;;
3341;SDS011;1684;50.748;6.154;2024-03-29T12:42:21;2.60;;;0.63;;
3341;SDS011;1684;50.748;6.154;2024-03-29T12:44:50;2.53;;;0.60;;
3341;SDS011;1684;50.748;6.154;2024-03-29T12:47:18;2.70;;;0.60;;
3341;SDS011;1684;50.748;6.154;2024-03-29T12:49:47;2.77;;;0.70;;
3341;SDS011;1684;50.748;6.154;2024-03-29T12:52:16;3.23;;;0.50;;
3341;SDS011;1684;50.748;6.154;2024-03-29T12:54:43;3.63;;;0.50;;
3341;SDS011;1684;50.748;6.154;2024-03-29T12:57:11;2.80;;;0.70;;
3341;SDS011;1684;50.748;6.154;2024-03-29T12:59:38;3.00;;;0.80;;
3341;SDS011;1684;50.748;6.154;2024-03-29T13:02:07;2.50;;;0.60;;
3341;SDS011;1684;50.748;6.154;2024-03-29T13:04:34;2.60;;;0.63;;
3341;SDS011;1684;50.748;6.154;2024-03-29T13:07:05;2.60;;;0.50;;
3341;SDS011;1684;50.748;6.154;2024-03-29T13:09:32;2.70;;;0.70;;
3341;SDS011;1684;50.748;6.154;2024-03-29T13:12:00;2.80;;;0.60;;
3341;SDS011;1684;50.748;6.154;2024-03-29T13:14:28;2.70;;;0.67;;
3341;SDS011;1684;50.748;6.154;2024-03-29T13:16:55;2.70;;;0.60;;
3341;SDS011;1684;50.748;6.154;2024-03-29T13:19:24;2.60;;;0.60;;
3341;SDS011;1684;50.748;6.154;2024-03-29T13:21:51;3.77;;;0.80;;
3341;SDS011;1684;50.748;6.154;2024-03-29T13:24:19;2.90;;;0.80;;
3341;SDS011;1684;50.748;6.154;2024-03-29T13:26:46;3.30;;;0.70;;
3341;SDS011;1684;50.748;6.154;2024-03-29T13:29:13;2.90;;;0.90;;
3341;SDS011;1684;50.748;6.154;2024-03-29T13:31:41;3.03;;;0.90;;
3341;SDS011;1684;50.748;6.154;2024-03-29T13:34:08;3.43;;;1.00;;
3341;SDS011;1684;50.748;6.154;2024-03-29T13:36:39;2.90;;;0.80;;
3341;SDS011;1684;50.748;6.154;2024-03-29T13:39:07;2.60;;;0.70;;
3341;SDS011;1684;50.748;6.154;2024-03-29T13:41:36;2.70;;;0.70;;
3341;SDS011;1684;50.748;6.154;2024-03-29T13:44:05;4.00;;;0.70;;
3341;SDS011;1684;50.748;6.154;2024-03-29T13:46:32;3.13;;;0.87;;
3341;SDS011;1684;50.748;6.154;2024-03-29T13:48:59;2.80;;;0.70;;
3341;SDS011;1684;50.748;6.154;2024-03-29T13:51:27;2.77;;;0.70;;
3341;SDS011;1684;50.748;6.154;2024-03-29T13:53:56;2.70;;;0.90;;
3341;SDS011;1684;50.748;6.154;2024-03-29T13:56:24;3.23;;;0.70;;
3341;SDS011;1684;50.748;6.154;2024-03-29T13:58:51;2.70;;;0.70;;
3341;SDS011;1684;50.748;6.154;2024-03-29T14:01:18;2.50;;;0.60;;
3341;SDS011;1684;50.748;6.154;2024-03-29T14:03:46;2.60;;;0.70;;
3341;SDS011;1684;50.748;6.154;2024-03-29T14:06:13;2.80;;;0.80;;
3341;SDS011;1684;50.748;6.154;2024-03-29T14:08:41;3.57;;;0.83;;
3341;SDS011;1684;50.748;6.154;2024-03-29T14:11:10;2.80;;;0.80;;
3341;SDS011;1684;50.748;6.154;2024-03-29T14:13:39;3.87;;;1.00;;
3341;SDS011;1684;50.748;6.154;2024-03-29T14:16:06;2.93;;;0.70;;
3341;SDS011;1684;50.748;6.154;2024-03-29T14:18:34;2.80;;;0.70;;
3341;SDS011;1684;50.748;6.154;2024-03-29T14:21:02;2.90;;;0.70;;
3341;SDS011;1684;50.748;6.154;2024-03-29T14:23:30;3.33;;;0.83;;
3341;SDS011;1684;50.748;6.154;2024-03-29T14:25:57;2.97;;;0.80;;
3341;SDS011;1684;50.748;6.154;2024-03-29T14:28:26;2.87;;;0.80;;
3341;SDS011;1684;50.748;6.154;2024-03-29T14:30:53;2.80;;;0.80;;
3341;SDS011;1684;50.748;6.154;2024-03-29T14:33:20;2.90;;;0.70;;
3341;SDS011;1684;50.748;6.154;2024-03-29T14:35:48;2.90;;;0.70;;
3341;SDS011;1684;50.748;6.154;2024-03-29T14:38:16;2.90;;;0.70;;
3341;SDS011;1684;50.748;6.154;2024-03-29T14:40:44;3.77;;;0.90;;
3341;SDS011;1684;50.748;6.154;2024-03-29T14:43:11;3.30;;;0.90;;
3341;SDS011;1684;50.748;6.154;2024-03-29T14:45:41;2.70;;;0.70;;
3341;SDS011;1684;50.748;6.154;2024-03-29T14:48:09;2.50;;;0.60;;
3341;SDS011;1684;50.748;6.154;2024-03-29T14:50:37;2.73;;;0.70;;
3341;SDS011;1684;50.748;6.154;2024-03-29T14:53:04;3.73;;;0.63;;
3341;SDS011;1684;50.748;6.154;2024-03-29T14:55:32;3.07;;;0.90;;
3341;SDS011;1684;50.748;6.154;2024-03-29T14:58:01;2.83;;;0.73;;
3341;SDS011;1684;50.748;6.154;2024-03-29T15:00:29;4.67;;;0.90;;
3341;SDS011;1684;50.748;6.154;2024-03-29T15:02:58;3.10;;;1.00;;
3341;SDS011;1684;50.748;6.154;2024-03-29T15:05:25;3.10;;;0.80;;
3341;SDS011;1684;50.748;6.154;2024-03-29T15:07:53;3.70;;;0.80;;
3341;SDS011;1684;50.748;6.154;2024-03-29T15:10:21;3.20;;;1.00;;
3341;SDS011;1684;50.748;6.154;2024-03-29T15:12:49;2.70;;;0.77;;
3341;SDS011;1684;50.748;6.154;2024-03-29T15:15:16;3.53;;;0.93;;
3341;SDS011;1684;50.748;6.154;2024-03-29T15:17:44;2.90;;;0.70;;
3341;SDS011;1684;50.748;6.154;2024-03-29T15:20:13;2.93;;;0.80;;